createdAt,value
2018-01-26T00:01:35.850Z,6.30
2018-01-26T00:04:03.732Z,6.30
2018-01-26T00:06:31.975Z,6.30
2018-01-26T00:09:01.075Z,6.20
2018-01-26T00:11:28.971Z,6.30
2018-01-26T00:13:57.219Z,6.30
2018-01-26T00:16:25.095Z,6.30
2018-01-26T00:18:52.570Z,6.30
2018-01-26T00:21:20.056Z,6.30
2018-01-26T00:23:48.303Z,6.30
2018-01-26T00:26:16.578Z,6.20
2018-01-26T00:28:44.848Z,6.30
2018-01-26T00:31:12.717Z,6.30
2018-01-26T00:33:41.403Z,6.30
2018-01-26T00:36:08.867Z,6.30
2018-01-26T00:38:36.748Z,6.30
2018-01-26T00:41:05.254Z,6.30
2018-01-26T00:43:33.604Z,6.30
2018-01-26T00:46:01.091Z,6.30
2018-01-26T00:48:28.906Z,6.20
2018-01-26T00:50:56.380Z,6.20
2018-01-26T00:53:23.878Z,6.20
2018-01-26T00:55:52.093Z,6.20
2018-01-26T00:58:19.679Z,6.10
2018-01-26T01:00:47.146Z,6.10
2018-01-26T01:03:14.742Z,6.10
2018-01-26T01:05:43.005Z,6.10
2018-01-26T01:08:10.550Z,6.10
2018-01-26T01:10:38.023Z,6.00
2018-01-26T01:13:05.517Z,6.00
2018-01-26T01:15:33.842Z,6.00
2018-01-26T01:18:02.037Z,6.00
2018-01-26T01:20:29.506Z,6.00
2018-01-26T01:22:57.778Z,5.90
2018-01-26T01:25:26.314Z,5.90
2018-01-26T01:27:53.785Z,5.90
2018-01-26T01:30:21.251Z,5.90
2018-01-26T01:32:49.471Z,5.80
2018-01-26T01:35:16.949Z,5.80
2018-01-26T01:37:45.180Z,5.80
2018-01-26T01:40:13.807Z,5.80
2018-01-26T01:42:42.532Z,5.80
2018-01-26T01:45:10.409Z,5.80
2018-01-26T01:47:37.927Z,5.80
2018-01-26T01:50:06.179Z,5.80
2018-01-26T01:52:34.463Z,5.80
2018-01-26T01:55:02.841Z,5.80
2018-01-26T01:57:31.770Z,5.80
2018-01-26T01:59:59.649Z,5.80
2018-01-26T02:02:27.378Z,5.80
2018-01-26T02:04:55.631Z,5.70
2018-01-26T02:07:23.922Z,5.80
2018-01-26T02:09:52.595Z,5.80
2018-01-26T02:12:20.879Z,5.80
2018-01-26T02:14:48.760Z,5.70
2018-01-26T02:17:16.631Z,5.70
2018-01-26T02:19:44.103Z,5.70
2018-01-26T02:22:11.591Z,5.70
2018-01-26T02:24:39.507Z,5.60
2018-01-26T02:27:07.001Z,5.60
2018-01-26T02:29:34.487Z,5.60
2018-01-26T02:32:02.726Z,5.60
2018-01-26T02:34:31.402Z,5.50
2018-01-26T02:36:58.888Z,5.50
2018-01-26T02:39:27.546Z,5.50
2018-01-26T02:41:55.415Z,5.40
2018-01-26T02:44:23.065Z,5.40
2018-01-26T02:46:50.853Z,5.40
2018-01-26T02:49:18.352Z,5.30
2018-01-26T02:51:46.576Z,5.30
2018-01-26T02:54:14.060Z,5.30
2018-01-26T02:56:42.305Z,5.20
2018-01-26T02:59:10.921Z,5.20
2018-01-26T03:01:39.518Z,5.20
2018-01-26T03:04:07.590Z,5.10
2018-01-26T03:06:35.833Z,5.10
2018-01-26T03:09:04.325Z,5.10
2018-01-26T03:11:32.573Z,5.00
2018-01-26T03:14:00.819Z,5.00
2018-01-26T03:16:29.428Z,4.90
2018-01-26T03:18:56.888Z,4.90
2018-01-26T03:21:24.406Z,4.90
2018-01-26T03:23:52.981Z,4.80
2018-01-26T03:26:20.878Z,4.80
2018-01-26T03:28:48.348Z,4.80
2018-01-26T03:31:15.829Z,4.80
2018-01-26T03:33:43.314Z,4.80
2018-01-26T03:36:11.560Z,4.80
2018-01-26T03:38:39.814Z,4.80
2018-01-26T03:41:07.291Z,4.80
2018-01-26T03:43:34.809Z,4.80
2018-01-26T03:46:02.703Z,4.70
2018-01-26T03:48:30.182Z,4.70
2018-01-26T03:50:58.051Z,4.70
2018-01-26T03:53:25.833Z,4.70
2018-01-26T03:55:53.734Z,4.60
2018-01-26T03:58:21.595Z,5.30
2018-01-26T04:00:50.171Z,4.60
2018-01-26T04:03:18.407Z,4.60
2018-01-26T04:05:45.900Z,4.60
2018-01-26T04:08:13.774Z,4.60
2018-01-26T04:10:41.642Z,4.50
2018-01-26T04:13:09.180Z,4.50
2018-01-26T04:15:37.043Z,4.50
2018-01-26T04:18:04.522Z,4.50
2018-01-26T04:20:32.777Z,4.60
2018-01-26T04:23:01.031Z,4.60
2018-01-26T04:25:29.269Z,4.60
2018-01-26T04:27:56.752Z,4.60
2018-01-26T04:30:24.967Z,4.60
2018-01-26T04:32:53.209Z,4.50
2018-01-26T04:35:20.676Z,4.50
2018-01-26T04:37:49.322Z,4.60
2018-01-26T04:40:16.791Z,4.60
2018-01-26T04:42:45.039Z,4.60
2018-01-26T04:45:12.869Z,4.60
2018-01-26T04:47:40.479Z,4.60
2018-01-26T04:50:07.967Z,4.50
2018-01-26T04:52:35.909Z,4.50
2018-01-26T04:55:04.155Z,4.50
2018-01-26T04:57:32.064Z,4.50
2018-01-26T04:59:59.871Z,4.50
2018-01-26T05:02:28.114Z,4.50
2018-01-26T05:04:56.354Z,4.50
2018-01-26T05:07:24.259Z,4.40
2018-01-26T05:09:51.799Z,4.40
2018-01-26T05:12:19.662Z,4.40
2018-01-26T05:14:47.471Z,4.30
2018-01-26T05:17:14.936Z,4.30
2018-01-26T05:19:43.185Z,4.30
2018-01-26T05:22:11.071Z,4.40
2018-01-26T05:24:38.534Z,4.40
2018-01-26T05:27:06.415Z,4.40
2018-01-26T05:29:35.101Z,4.40
2018-01-26T05:32:03.343Z,4.50
2018-01-26T05:34:31.203Z,4.40
2018-01-26T05:36:59.402Z,4.40
2018-01-26T05:39:26.884Z,4.40
2018-01-26T05:41:54.352Z,4.40
2018-01-26T05:44:22.539Z,4.30
2018-01-26T05:46:50.043Z,4.40
2018-01-26T05:49:18.281Z,4.30
2018-01-26T05:51:46.131Z,4.30
2018-01-26T05:54:13.611Z,4.40
2018-01-26T05:56:41.089Z,4.40
2018-01-26T05:59:08.960Z,4.50
2018-01-26T06:01:36.830Z,4.50
2018-01-26T06:04:05.076Z,4.50
2018-01-26T06:06:33.791Z,4.60
2018-01-26T06:09:02.087Z,4.60
2018-01-26T06:11:30.332Z,4.60
2018-01-26T06:13:58.931Z,4.60
2018-01-26T06:16:27.203Z,4.60
2018-01-26T06:18:55.146Z,4.60
2018-01-26T06:21:23.400Z,4.50
2018-01-26T06:23:51.638Z,4.50
2018-01-26T06:26:19.138Z,4.50
2018-01-26T06:28:46.978Z,4.50
2018-01-26T06:31:15.230Z,4.50
2018-01-26T06:33:43.479Z,4.50
2018-01-26T06:36:11.017Z,4.40
2018-01-26T06:38:38.488Z,4.40
2018-01-26T06:41:06.351Z,4.40
2018-01-26T06:43:34.604Z,4.40
2018-01-26T06:46:02.493Z,4.40
2018-01-26T06:48:29.985Z,4.40
2018-01-26T06:50:58.597Z,4.50
2018-01-26T06:53:26.069Z,4.50
2018-01-26T06:55:53.550Z,4.50
2018-01-26T06:58:21.347Z,4.50
2018-01-26T07:00:49.215Z,4.50
2018-01-26T07:03:17.535Z,4.50
2018-01-26T07:05:45.340Z,4.50
2018-01-26T07:08:12.856Z,4.60
2018-01-26T07:10:40.737Z,4.50
2018-01-26T07:13:08.279Z,4.50
2018-01-26T07:15:35.770Z,4.50
2018-01-26T07:18:03.295Z,4.50
2018-01-26T07:20:31.571Z,4.50
2018-01-26T07:22:59.456Z,4.60
2018-01-26T07:25:27.021Z,4.60
2018-01-26T07:27:54.532Z,4.60
2018-01-26T07:30:22.016Z,4.50
2018-01-26T07:32:50.286Z,4.60
2018-01-26T07:35:18.159Z,4.60
2018-01-26T07:37:46.398Z,4.60
2018-01-26T07:40:14.643Z,4.60
2018-01-26T07:42:42.123Z,4.70
2018-01-26T07:45:10.361Z,4.70
2018-01-26T07:47:38.231Z,4.60
2018-01-26T07:50:06.435Z,4.70
2018-01-26T07:52:34.304Z,4.60
2018-01-26T07:55:02.563Z,4.70
2018-01-26T07:57:30.860Z,4.70
2018-01-26T07:59:59.105Z,4.70
2018-01-26T08:02:28.080Z,4.70
2018-01-26T08:04:55.996Z,4.80
2018-01-26T08:07:24.223Z,4.80
2018-01-26T08:09:51.727Z,4.80
2018-01-26T08:12:19.986Z,4.80
2018-01-26T08:14:47.439Z,4.80
2018-01-26T08:17:15.318Z,4.90
2018-01-26T08:19:43.195Z,4.80
2018-01-26T08:22:11.470Z,4.80
2018-01-26T08:24:39.336Z,4.80
2018-01-26T08:27:07.606Z,4.80
2018-01-26T08:29:35.479Z,4.80
2018-01-26T08:32:03.704Z,4.80
2018-01-26T08:34:31.953Z,4.90
2018-01-26T08:37:00.193Z,4.90
2018-01-26T08:39:28.081Z,4.90
2018-01-26T08:41:56.347Z,4.90
2018-01-26T08:44:24.214Z,4.90
2018-01-26T08:46:52.453Z,4.90
2018-01-26T08:49:20.003Z,4.90
2018-01-26T08:51:47.473Z,4.80
2018-01-26T08:54:14.954Z,4.80
2018-01-26T08:56:42.878Z,4.70
2018-01-26T08:59:11.486Z,4.80
2018-01-26T09:01:39.402Z,4.70
2018-01-26T09:04:07.643Z,4.70
2018-01-26T09:06:35.887Z,4.70
2018-01-26T09:09:04.144Z,4.70
2018-01-26T09:11:32.022Z,4.80
2018-01-26T09:14:00.256Z,4.90
2018-01-26T09:16:28.145Z,5.00
2018-01-26T09:18:55.608Z,5.00
2018-01-26T09:21:23.094Z,5.00
2018-01-26T09:23:51.028Z,5.00
2018-01-26T09:26:19.375Z,5.10
2018-01-26T09:28:47.647Z,5.00
2018-01-26T09:31:15.519Z,5.10
2018-01-26T09:33:43.392Z,5.00
2018-01-26T09:36:10.939Z,5.10
2018-01-26T09:38:38.829Z,5.00
2018-01-26T09:41:06.983Z,5.00
2018-01-26T09:46:09.588Z,5.20
2018-01-26T09:48:37.062Z,5.30
2018-01-26T09:51:04.627Z,5.50
2018-01-26T09:53:32.863Z,5.50
2018-01-26T09:56:01.136Z,5.60
2018-01-26T09:58:29.515Z,5.80
2018-01-26T10:00:57.935Z,6.00
2018-01-26T10:03:25.427Z,6.40
2018-01-26T10:05:53.703Z,6.80
2018-01-26T10:08:21.587Z,7.10
2018-01-26T10:10:49.093Z,7.60
2018-01-26T10:13:16.611Z,8.00
2018-01-26T10:15:44.506Z,8.60
2018-01-26T10:18:12.385Z,8.80
2018-01-26T10:20:41.027Z,9.00
2018-01-26T10:23:08.935Z,9.30
2018-01-26T10:25:37.622Z,9.60
2018-01-26T10:28:05.124Z,9.40
2018-01-26T10:30:33.026Z,9.50
2018-01-26T10:33:00.540Z,9.70
2018-01-26T10:35:28.421Z,9.80
2018-01-26T10:37:56.327Z,10.00
2018-01-26T10:40:23.845Z,9.90
2018-01-26T10:42:51.795Z,9.80
2018-01-26T10:45:20.133Z,9.60
2018-01-26T10:47:47.633Z,9.20
2018-01-26T10:50:15.974Z,8.90
2018-01-26T10:52:44.427Z,8.70
2018-01-26T10:55:12.292Z,8.70
2018-01-26T10:57:40.168Z,8.50
2018-01-26T11:00:08.735Z,8.30
2018-01-26T11:02:36.679Z,8.40
2018-01-26T11:05:04.563Z,8.10
2018-01-26T11:07:32.891Z,8.10
2018-01-26T11:10:00.848Z,8.20
2018-01-26T11:12:29.115Z,8.50
2018-01-26T11:14:56.997Z,8.90
2018-01-26T11:17:25.228Z,9.40
2018-01-26T11:19:52.717Z,9.70
2018-01-26T11:22:20.760Z,10.10
2018-01-26T11:24:49.019Z,10.50
2018-01-26T11:27:16.969Z,11.00
2018-01-26T11:29:44.920Z,11.40
2018-01-26T11:32:12.821Z,12.00
2018-01-26T11:34:40.316Z,12.50
2018-01-26T11:37:08.215Z,12.70
2018-01-26T11:39:36.083Z,12.80
2018-01-26T11:42:04.363Z,13.20
2018-01-26T11:44:32.683Z,13.00
2018-01-26T11:47:00.560Z,13.30
2018-01-26T11:49:28.435Z,12.80
2018-01-26T11:51:56.019Z,12.50
2018-01-26T11:54:23.507Z,12.30
2018-01-26T11:56:51.783Z,12.10
2018-01-26T11:59:19.336Z,11.90
2018-01-26T12:01:47.240Z,11.40
2018-01-26T12:04:15.143Z,11.50
2018-01-26T12:06:43.497Z,11.40
2018-01-26T12:09:11.430Z,11.30
2018-01-26T12:11:39.767Z,11.40
2018-01-26T12:14:07.281Z,11.90
2018-01-26T12:16:35.531Z,12.30
2018-01-26T12:19:03.419Z,12.10
2018-01-26T12:21:31.734Z,12.50
2018-01-26T12:23:59.596Z,12.00
2018-01-26T12:26:27.179Z,11.50
2018-01-26T12:28:54.656Z,11.10
2018-01-26T12:31:22.554Z,10.60
2018-01-26T12:33:50.871Z,10.40
2018-01-26T12:36:18.765Z,10.20
2018-01-26T12:38:47.118Z,10.10
2018-01-26T12:41:15.094Z,10.10
2018-01-26T12:43:43.190Z,10.00
2018-01-26T12:46:11.190Z,10.00
2018-01-26T12:48:39.443Z,9.80
2018-01-26T12:51:07.479Z,9.70
2018-01-26T12:53:35.049Z,9.90
2018-01-26T12:56:02.919Z,10.20
2018-01-26T12:58:30.402Z,10.20
2018-01-26T13:00:58.271Z,9.90
2018-01-26T13:03:25.735Z,9.80
2018-01-26T13:05:54.070Z,9.60
2018-01-26T13:08:22.323Z,9.40
2018-01-26T13:10:49.815Z,9.30
2018-01-26T13:13:18.350Z,9.30
2018-01-26T13:15:45.826Z,9.30
2018-01-26T13:18:13.600Z,9.30
2018-01-26T13:20:42.278Z,9.40
2018-01-26T13:23:09.833Z,9.50
2018-01-26T13:25:37.306Z,9.60
2018-01-26T13:28:05.531Z,9.60
2018-01-26T13:30:33.487Z,9.50
2018-01-26T13:33:01.403Z,9.40
2018-01-26T13:35:29.678Z,9.30
2018-01-26T13:37:57.911Z,9.20
2018-01-26T13:40:26.207Z,9.20
2018-01-26T13:42:54.107Z,9.20
2018-01-26T13:45:22.375Z,9.20
2018-01-26T13:47:49.863Z,9.20
2018-01-26T13:50:18.220Z,9.20
2018-01-26T13:52:46.079Z,9.10
2018-01-26T13:55:14.331Z,8.90
2018-01-26T13:57:42.731Z,8.80
2018-01-26T14:00:10.796Z,8.80
2018-01-26T14:02:39.039Z,8.70
2018-01-26T14:05:06.535Z,8.60
2018-01-26T14:07:34.415Z,8.60
2018-01-26T14:10:02.328Z,8.60
2018-01-26T14:12:30.899Z,8.70
2018-01-26T14:14:58.506Z,8.70
2018-01-26T14:17:27.123Z,8.60
2018-01-26T14:19:55.397Z,8.60
2018-01-26T14:22:23.657Z,8.00
2018-01-26T14:24:51.536Z,7.70
2018-01-26T14:27:19.795Z,7.60
2018-01-26T14:29:47.662Z,7.50
2018-01-26T14:32:15.531Z,7.30
2018-01-26T14:34:43.102Z,7.20
2018-01-26T14:37:10.596Z,7.10
2018-01-26T14:39:38.522Z,7.00
2018-01-26T14:42:06.740Z,7.00
2018-01-26T14:44:35.020Z,7.10
2018-01-26T14:47:02.954Z,7.00
2018-01-26T14:49:31.981Z,7.10
2018-01-26T14:52:00.238Z,7.10
2018-01-26T14:54:28.163Z,7.00
2018-01-26T14:56:56.451Z,7.00
2018-01-26T14:59:23.957Z,7.00
2018-01-26T15:01:52.269Z,7.00
2018-01-26T15:04:20.897Z,7.00
2018-01-26T15:06:48.363Z,7.00
2018-01-26T15:09:16.634Z,6.90
2018-01-26T15:11:45.463Z,6.90
2018-01-26T15:14:13.439Z,6.90
2018-01-26T15:16:42.055Z,6.80
2018-01-26T15:19:09.584Z,6.80
2018-01-26T15:21:37.099Z,6.80
2018-01-26T15:24:06.152Z,6.80
2018-01-26T15:26:34.031Z,6.70
2018-01-26T15:29:02.271Z,6.70
2018-01-26T15:31:30.203Z,6.70
2018-01-26T15:33:58.608Z,6.70
2018-01-26T15:36:26.875Z,6.70
2018-01-26T15:38:54.765Z,6.70
2018-01-26T15:41:22.276Z,6.70
2018-01-26T15:43:50.609Z,6.70
2018-01-26T15:46:19.220Z,6.60
2018-01-26T15:48:48.287Z,6.60
2018-01-26T15:51:15.775Z,6.60
2018-01-26T15:53:44.024Z,6.60
2018-01-26T15:56:11.923Z,6.50
2018-01-26T15:58:39.793Z,6.50
2018-01-26T16:01:07.702Z,6.50
2018-01-26T16:03:35.607Z,6.40
2018-01-26T16:06:03.160Z,6.50
2018-01-26T16:08:31.034Z,6.40
2018-01-26T16:10:58.927Z,6.40
2018-01-26T16:13:26.844Z,6.40
2018-01-26T16:16:04.034Z,6.40
2018-01-26T16:18:32.683Z,6.40
2018-01-26T16:21:02.932Z,6.40
2018-01-26T16:23:31.299Z,6.40
2018-01-26T16:25:59.269Z,6.40
2018-01-26T16:28:27.158Z,6.40
2018-01-26T16:30:54.661Z,6.40
2018-01-26T16:33:22.149Z,6.40
2018-01-26T16:35:50.014Z,6.40
2018-01-26T16:38:17.905Z,6.40
2018-01-26T16:40:45.778Z,6.30
2018-01-26T16:43:14.016Z,6.40
2018-01-26T16:45:42.309Z,6.30
2018-01-26T16:48:10.231Z,8.20
2018-01-26T16:50:37.709Z,6.50
2018-01-26T16:53:05.639Z,6.50
2018-01-26T16:55:33.550Z,6.50
2018-01-26T16:58:01.435Z,6.50
2018-01-26T17:00:30.018Z,6.30
2018-01-26T17:02:57.503Z,6.50
2018-01-26T17:05:25.079Z,6.50
2018-01-26T17:07:52.570Z,6.60
2018-01-26T17:10:20.449Z,6.60
2018-01-26T17:12:48.372Z,6.50
2018-01-26T17:15:16.652Z,6.50
2018-01-26T17:17:44.528Z,6.50
2018-01-26T17:20:12.400Z,6.50
2018-01-26T17:22:40.685Z,6.50
2018-01-26T17:25:10.587Z,6.50
2018-01-26T17:27:39.091Z,6.50
2018-01-26T17:30:07.088Z,6.40
2018-01-26T17:32:35.068Z,6.50
2018-01-26T17:35:03.108Z,6.50
2018-01-26T17:37:30.779Z,6.50
2018-01-26T17:39:58.342Z,6.50
2018-01-26T17:42:26.608Z,6.50
2018-01-26T17:44:54.864Z,6.50
2018-01-26T17:47:22.755Z,6.50
2018-01-26T17:49:50.618Z,6.50
2018-01-26T17:52:19.280Z,6.50
2018-01-26T17:54:47.154Z,6.50
2018-01-26T17:57:15.477Z,6.40
2018-01-26T17:59:44.241Z,6.50
2018-01-26T18:02:11.752Z,6.40
2018-01-26T18:04:39.987Z,6.40
2018-01-26T18:07:08.056Z,6.40
2018-01-26T18:09:36.253Z,6.40
2018-01-26T18:12:04.503Z,6.30
2018-01-26T18:14:32.680Z,6.40
2018-01-26T18:17:00.295Z,6.40
2018-01-26T18:19:28.614Z,6.40
2018-01-26T18:21:57.360Z,6.40
2018-01-26T18:24:25.615Z,6.40
2018-01-26T18:26:53.851Z,6.40
2018-01-26T18:29:22.016Z,6.40
2018-01-26T18:31:49.525Z,6.50
2018-01-26T18:34:17.428Z,6.50
2018-01-26T18:36:44.915Z,6.60
2018-01-26T18:39:12.798Z,6.60
2018-01-26T18:41:42.162Z,6.60
2018-01-26T18:44:09.671Z,6.60
2018-01-26T18:46:37.159Z,6.60
2018-01-26T18:49:04.639Z,6.60
2018-01-26T18:51:32.541Z,6.60
2018-01-26T18:54:00.779Z,6.60
2018-01-26T18:56:29.055Z,6.60
2018-01-26T18:58:56.579Z,6.60
2018-01-26T19:01:24.611Z,6.50
2018-01-26T19:03:52.109Z,6.60
2018-01-26T19:06:20.415Z,6.60
2018-01-26T19:08:48.661Z,6.60
2018-01-26T19:11:16.899Z,6.60
2018-01-26T19:13:44.690Z,6.70
2018-01-26T19:16:12.582Z,6.60
2018-01-26T19:18:40.835Z,6.60
2018-01-26T19:21:09.151Z,6.70
2018-01-26T19:23:37.785Z,6.80
2018-01-26T19:26:06.034Z,6.80
2018-01-26T19:28:34.000Z,6.70
2018-01-26T19:31:02.321Z,7.10
2018-01-26T19:33:30.560Z,6.80
2018-01-26T19:35:58.053Z,6.80
2018-01-26T19:38:26.329Z,6.80
2018-01-26T19:40:54.203Z,6.70
2018-01-26T19:43:22.508Z,6.70
2018-01-26T19:45:49.972Z,6.80
2018-01-26T19:48:18.212Z,6.80
2018-01-26T19:50:47.619Z,6.80
2018-01-26T19:53:15.091Z,6.70
2018-01-26T19:55:43.943Z,6.70
2018-01-26T19:58:13.444Z,6.70
2018-01-26T20:00:40.920Z,6.70
2018-01-26T20:03:21.140Z,6.60
2018-01-26T20:05:54.272Z,6.50
2018-01-26T20:08:31.084Z,6.50
2018-01-26T20:10:59.760Z,6.30
2018-01-26T20:13:28.549Z,6.20
2018-01-26T20:15:57.233Z,6.10
2018-01-26T20:18:24.750Z,6.20
2018-01-26T20:20:52.659Z,6.20
2018-01-26T20:23:22.215Z,6.30
2018-01-26T20:25:49.679Z,6.30
2018-01-26T20:28:18.648Z,6.30
2018-01-26T20:30:46.543Z,6.30
2018-01-26T20:33:14.840Z,6.30
2018-01-26T20:35:42.349Z,6.30
2018-01-26T20:38:10.237Z,6.30
2018-01-26T20:40:38.477Z,6.40
2018-01-26T20:43:06.733Z,6.40
2018-01-26T20:45:34.724Z,6.40
2018-01-26T20:48:02.998Z,6.50
2018-01-26T20:50:31.570Z,6.50
2018-01-26T20:53:00.667Z,6.50
2018-01-26T20:55:28.139Z,6.50
2018-01-26T20:57:56.019Z,6.50
2018-01-26T21:00:24.559Z,6.60
2018-01-26T21:02:52.936Z,6.60
2018-01-26T21:05:20.405Z,6.60
2018-01-26T21:07:48.874Z,6.60
2018-01-26T21:10:17.147Z,6.60
2018-01-26T21:12:45.076Z,6.60
2018-01-26T21:15:13.516Z,6.70
2018-01-26T21:17:41.408Z,6.70
2018-01-26T21:20:10.455Z,6.70
2018-01-26T21:22:37.944Z,6.70
2018-01-26T21:25:05.718Z,6.70
2018-01-26T21:27:33.430Z,6.70
2018-01-26T21:30:01.218Z,6.70
2018-01-26T21:32:29.480Z,6.70
2018-01-26T21:34:56.966Z,6.70
2018-01-26T21:37:24.843Z,6.80
2018-01-26T21:39:52.323Z,6.80
2018-01-26T21:42:20.565Z,6.80
2018-01-26T21:44:50.450Z,6.80
2018-01-26T21:47:18.687Z,6.80
2018-01-26T21:49:46.635Z,6.80
2018-01-26T21:52:14.597Z,6.70
2018-01-26T21:54:42.885Z,6.70
2018-01-26T21:57:10.370Z,6.70
2018-01-26T21:59:38.963Z,6.60
2018-01-26T22:02:07.198Z,6.60
2018-01-26T22:04:40.257Z,6.60
2018-01-26T22:07:13.775Z,6.60
2018-01-26T22:09:42.817Z,6.60
2018-01-26T22:12:11.406Z,6.70
2018-01-26T22:14:38.873Z,6.60
2018-01-26T22:17:06.752Z,6.60
2018-01-26T22:19:34.228Z,6.70
2018-01-26T22:22:02.554Z,6.50
2018-01-26T22:24:30.060Z,6.30
2018-01-26T22:26:58.171Z,6.30
2018-01-26T22:29:26.695Z,6.20
2018-01-26T22:31:54.261Z,6.20
2018-01-26T22:34:21.738Z,6.20
2018-01-26T22:36:49.638Z,6.20
2018-01-26T22:39:18.592Z,6.20
2018-01-26T22:41:46.498Z,6.30
2018-01-26T22:44:14.816Z,6.30
2018-01-26T22:46:43.758Z,6.30
2018-01-26T22:49:11.633Z,6.20
2018-01-26T22:51:39.557Z,6.30
2018-01-26T22:54:07.405Z,6.30
2018-01-26T22:56:35.651Z,6.20
2018-01-26T22:59:03.198Z,6.20
2018-01-26T23:01:31.105Z,6.20
2018-01-26T23:03:59.068Z,6.30
2018-01-26T23:06:27.675Z,6.30
2018-01-26T23:08:55.534Z,6.30
2018-01-26T23:11:23.086Z,6.30
2018-01-26T23:13:51.456Z,6.30
2018-01-26T23:16:19.330Z,6.20
2018-01-26T23:18:47.246Z,6.20
2018-01-26T23:21:15.127Z,6.10
2018-01-26T23:23:43.327Z,6.10
2018-01-26T23:26:11.605Z,6.10
2018-01-26T23:28:39.080Z,6.00
2018-01-26T23:31:06.732Z,6.00
2018-01-26T23:33:34.323Z,6.00
2018-01-26T23:36:02.203Z,5.90
2018-01-26T23:38:31.033Z,5.90
2018-01-26T23:40:59.328Z,5.90
2018-01-26T23:43:27.199Z,5.90
2018-01-26T23:45:54.697Z,5.90
2018-01-26T23:48:22.941Z,5.90
2018-01-26T23:50:50.420Z,5.90
2018-01-26T23:53:18.260Z,6.00
2018-01-26T23:55:46.527Z,6.00
2018-01-26T23:58:14.404Z,6.00
